Buckley Air Force Base
KBKF : now visible

Airfield :











YOU CAN JOIN US ON...

 
LOGIN :

Register | Disclaimer

   EN    FR    IT 

 









Legend :    VFR   Marginal VFR   IFR   Intensive IFR   Very Intensive IFR
Visi :
Ceiling :
>= 8 km
>= 3000ft
5 to 8 km
1000 to 3000 ft
1500m to 5 km
500 to 1000 ft
800 to 1500m
200 to 500 ft
< 800m
< 200 ft
Symbols :   Thunderstorms  Fog  Heavy snow  Heavy precipitations  Wind > 20 kt







- Airport Elevation : 5662 ft


KBKF - Buckley Air Force Base

CURRENT METAR :
  • 200758Z 07008KT 10SM OVC023 06/03 A2992 RMK AO2A SLP095 T00610027

EXPIRED METARs :
  • 200658Z 07006KT 10SM OVC025 07/03 A2992 RMK AO2A SLP100 T00660032 401540019
  • 200558Z 10008KT 10SM OVC025 07/04 A2993 RMK AO2A SLP103 T00650035 10098 20069 50005

TAF TAF KBKF
Valid from the 20 at 01:00 until the 21 at 07:00 UTC


200107Z 2001/2107 30012KT 8000 -SHRA SCT050 SCT090 BKN150 QNH2982INS
TEMPO 2004/2008 BKN010
BECMG 2011/2012 15009KT 9999 NSW SCT010 SCT040 QNH2976INS
BECMG 2016/2017 10012KT 9999 SCT025 SCT060 QNH2963INS
BECMG 2021/2022 10015G25KT 9999 SCT015 SCT040 BKN070 620702 QNH2962INS
BECMG 2101/2102 10009KT 8000 -SHRA OVC010 610109 QNH2960INS
BECMG 2105/2106 35009KT 6000 -SHRA OVC007 610079 QNH2956INS TX12/2022Z TN01/2013Z
KZDV FIR / North America



MET'MAP, your aeronautical weather chart ! - Copyright ORBIFLY December 2007 - Disclaimer

ORBIFLY MET'MAP TEAM :

Programming & Development : Alexandra Zaïnal
Concept & Development : Baudouin d'Aumeries
Co-Development & Prog : Marc-Olivier Méhu
Technical & hardware support : Manuel Goepfert

Contact : metmap@orbifly.com




SOURCES & CREDITS :

   NOAA       Earth
Advisory